sensor_id;sensor_type;location;lat;lon;timestamp;P1;durP1;ratioP1;P2;durP2;ratioP2
13185;SDS011;6658;53.080;7.428;2022-10-17T00:00:45;4.47;;;3.50;;
13185;SDS011;6658;53.080;7.428;2022-10-17T00:03:11;8.20;;;5.40;;
13185;SDS011;6658;53.080;7.428;2022-10-17T00:05:40;4.43;;;4.03;;
13185;SDS011;6658;53.080;7.428;2022-10-17T00:08:09;4.93;;;4.23;;
13185;SDS011;6658;53.080;7.428;2022-10-17T00:10:36;5.13;;;3.90;;
13185;SDS011;6658;53.080;7.428;2022-10-17T00:13:02;6.57;;;4.07;;
13185;SDS011;6658;53.080;7.428;2022-10-17T00:15:28;6.30;;;3.90;;
13185;SDS011;6658;53.080;7.428;2022-10-17T00:17:53;6.43;;;3.70;;
13185;SDS011;6658;53.080;7.428;2022-10-17T00:20:19;5.50;;;3.97;;
13185;SDS011;6658;53.080;7.428;2022-10-17T00:22:45;6.87;;;3.97;;
13185;SDS011;6658;53.080;7.428;2022-10-17T00:25:10;12.27;;;4.50;;
13185;SDS011;6658;53.080;7.428;2022-10-17T00:27:37;11.83;;;4.50;;
13185;SDS011;6658;53.080;7.428;2022-10-17T00:30:04;6.50;;;4.03;;
13185;SDS011;6658;53.080;7.428;2022-10-17T00:32:32;7.13;;;4.70;;
13185;SDS011;6658;53.080;7.428;2022-10-17T00:34:58;5.07;;;4.30;;
13185;SDS011;6658;53.080;7.428;2022-10-17T00:37:23;6.93;;;4.13;;
13185;SDS011;6658;53.080;7.428;2022-10-17T00:39:49;7.23;;;4.23;;
13185;SDS011;6658;53.080;7.428;2022-10-17T00:42:15;6.37;;;4.07;;
13185;SDS011;6658;53.080;7.428;2022-10-17T00:47:10;7.87;;;4.07;;
13185;SDS011;6658;53.080;7.428;2022-10-17T00:49:40;8.57;;;6.20;;
13185;SDS011;6658;53.080;7.428;2022-10-17T00:52:10;9.60;;;4.53;;
13185;SDS011;6658;53.080;7.428;2022-10-17T00:54:43;7.70;;;4.73;;
13185;SDS011;6658;53.080;7.428;2022-10-17T00:57:12;7.17;;;5.40;;
13185;SDS011;6658;53.080;7.428;2022-10-17T00:59:39;6.27;;;4.40;;
13185;SDS011;6658;53.080;7.428;2022-10-17T01:04:38;6.90;;;5.00;;
13185;SDS011;6658;53.080;7.428;2022-10-17T01:07:06;7.43;;;4.60;;
13185;SDS011;6658;53.080;7.428;2022-10-17T01:09:32;7.53;;;4.90;;
13185;SDS011;6658;53.080;7.428;2022-10-17T01:12:02;5.97;;;4.57;;
13185;SDS011;6658;53.080;7.428;2022-10-17T01:14:51;6.37;;;4.37;;
13185;SDS011;6658;53.080;7.428;2022-10-17T01:25:55;8.13;;;4.63;;
13185;SDS011;6658;53.080;7.428;2022-10-17T01:31:13;5.60;;;5.00;;
13185;SDS011;6658;53.080;7.428;2022-10-17T01:33:45;5.97;;;4.00;;
13185;SDS011;6658;53.080;7.428;2022-10-17T01:36:31;6.37;;;4.50;;
13185;SDS011;6658;53.080;7.428;2022-10-17T01:44:47;5.27;;;3.80;;
13185;SDS011;6658;53.080;7.428;2022-10-17T01:47:21;5.63;;;4.40;;
13185;SDS011;6658;53.080;7.428;2022-10-17T01:49:51;7.80;;;4.53;;
13185;SDS011;6658;53.080;7.428;2022-10-17T01:52:25;5.57;;;3.90;;
13185;SDS011;6658;53.080;7.428;2022-10-17T01:55:00;7.03;;;4.37;;
13185;SDS011;6658;53.080;7.428;2022-10-17T01:57:41;4.93;;;3.80;;
13185;SDS011;6658;53.080;7.428;2022-10-17T02:00:16;4.67;;;3.90;;
13185;SDS011;6658;53.080;7.428;2022-10-17T02:02:45;5.67;;;4.07;;
13185;SDS011;6658;53.080;7.428;2022-10-17T02:05:15;4.80;;;3.70;;
13185;SDS011;6658;53.080;7.428;2022-10-17T02:07:44;4.50;;;4.10;;
13185;SDS011;6658;53.080;7.428;2022-10-17T02:10:11;6.80;;;4.00;;
13185;SDS011;6658;53.080;7.428;2022-10-17T02:20:59;4.93;;;4.07;;
13185;SDS011;6658;53.080;7.428;2022-10-17T02:23:53;6.47;;;4.30;;
13185;SDS011;6658;53.080;7.428;2022-10-17T02:29:30;5.73;;;3.97;;
13185;SDS011;6658;53.080;7.428;2022-10-17T02:34:48;7.13;;;4.13;;
13185;SDS011;6658;53.080;7.428;2022-10-17T02:37:18;5.20;;;4.63;;
13185;SDS011;6658;53.080;7.428;2022-10-17T02:39:47;5.20;;;4.60;;
13185;SDS011;6658;53.080;7.428;2022-10-17T02:42:14;10.33;;;5.67;;
13185;SDS011;6658;53.080;7.428;2022-10-17T02:44:42;6.43;;;5.03;;
13185;SDS011;6658;53.080;7.428;2022-10-17T02:47:18;5.00;;;4.50;;
13185;SDS011;6658;53.080;7.428;2022-10-17T02:49:56;6.20;;;4.53;;
13185;SDS011;6658;53.080;7.428;2022-10-17T02:55:33;5.30;;;4.80;;
13185;SDS011;6658;53.080;7.428;2022-10-17T02:58:10;5.83;;;4.70;;
13185;SDS011;6658;53.080;7.428;2022-10-17T03:00:40;7.53;;;4.93;;
13185;SDS011;6658;53.080;7.428;2022-10-17T03:03:17;6.07;;;5.20;;
13185;SDS011;6658;53.080;7.428;2022-10-17T03:05:44;5.27;;;4.87;;
13185;SDS011;6658;53.080;7.428;2022-10-17T03:08:10;8.57;;;5.83;;
13185;SDS011;6658;53.080;7.428;2022-10-17T03:10:35;6.23;;;5.07;;
13185;SDS011;6658;53.080;7.428;2022-10-17T03:13:01;6.77;;;4.93;;
13185;SDS011;6658;53.080;7.428;2022-10-17T03:15:27;6.87;;;5.50;;
13185;SDS011;6658;53.080;7.428;2022-10-17T03:17:52;6.20;;;5.60;;
13185;SDS011;6658;53.080;7.428;2022-10-17T03:20:18;6.13;;;5.53;;
13185;SDS011;6658;53.080;7.428;2022-10-17T03:22:43;7.83;;;5.60;;
13185;SDS011;6658;53.080;7.428;2022-10-17T03:25:09;7.03;;;5.73;;
13185;SDS011;6658;53.080;7.428;2022-10-17T03:27:35;8.57;;;6.30;;
13185;SDS011;6658;53.080;7.428;2022-10-17T03:30:00;6.00;;;5.47;;
13185;SDS011;6658;53.080;7.428;2022-10-17T03:32:26;6.03;;;5.30;;
13185;SDS011;6658;53.080;7.428;2022-10-17T03:34:52;6.50;;;5.97;;
13185;SDS011;6658;53.080;7.428;2022-10-17T03:37:17;7.30;;;6.63;;
13185;SDS011;6658;53.080;7.428;2022-10-17T03:39:43;7.57;;;6.00;;
13185;SDS011;6658;53.080;7.428;2022-10-17T03:42:08;7.07;;;6.20;;
13185;SDS011;6658;53.080;7.428;2022-10-17T03:44:34;7.10;;;6.40;;
13185;SDS011;6658;53.080;7.428;2022-10-17T03:47:00;6.53;;;5.93;;
13185;SDS011;6658;53.080;7.428;2022-10-17T03:49:25;8.17;;;6.40;;
13185;SDS011;6658;53.080;7.428;2022-10-17T03:51:51;7.47;;;6.87;;
13185;SDS011;6658;53.080;7.428;2022-10-17T03:54:16;7.50;;;6.90;;
13185;SDS011;6658;53.080;7.428;2022-10-17T03:56:42;8.57;;;6.40;;
13185;SDS011;6658;53.080;7.428;2022-10-17T03:59:10;7.70;;;6.67;;
13185;SDS011;6658;53.080;7.428;2022-10-17T04:01:38;8.47;;;7.57;;
13185;SDS011;6658;53.080;7.428;2022-10-17T04:04:04;8.20;;;7.50;;
13185;SDS011;6658;53.080;7.428;2022-10-17T04:06:29;7.83;;;7.03;;
13185;SDS011;6658;53.080;7.428;2022-10-17T04:08:55;8.37;;;7.67;;
13185;SDS011;6658;53.080;7.428;2022-10-17T04:11:21;8.00;;;7.30;;
13185;SDS011;6658;53.080;7.428;2022-10-17T04:13:47;8.03;;;7.33;;
13185;SDS011;6658;53.080;7.428;2022-10-17T04:16:16;9.63;;;8.00;;
13185;SDS011;6658;53.080;7.428;2022-10-17T04:18:42;8.30;;;7.50;;
13185;SDS011;6658;53.080;7.428;2022-10-17T04:21:08;9.70;;;8.23;;
13185;SDS011;6658;53.080;7.428;2022-10-17T04:23:34;8.60;;;7.73;;
13185;SDS011;6658;53.080;7.428;2022-10-17T04:26:01;9.47;;;8.67;;
13185;SDS011;6658;53.080;7.428;2022-10-17T04:28:27;8.43;;;7.63;;
13185;SDS011;6658;53.080;7.428;2022-10-17T04:30:55;9.20;;;8.30;;
13185;SDS011;6658;53.080;7.428;2022-10-17T04:33:21;8.50;;;7.70;;
13185;SDS011;6658;53.080;7.428;2022-10-17T04:35:57;9.07;;;8.33;;
13185;SDS011;6658;53.080;7.428;2022-10-17T04:38:27;9.43;;;8.63;;
13185;SDS011;6658;53.080;7.428;2022-10-17T04:40:56;8.83;;;8.13;;
13185;SDS011;6658;53.080;7.428;2022-10-17T04:43:27;8.53;;;7.73;;
13185;SDS011;6658;53.080;7.428;2022-10-17T04:45:53;9.53;;;8.63;;
13185;SDS011;6658;53.080;7.428;2022-10-17T04:48:20;9.10;;;8.30;;
13185;SDS011;6658;53.080;7.428;2022-10-17T04:50:56;9.50;;;8.40;;
13185;SDS011;6658;53.080;7.428;2022-10-17T04:53:23;9.03;;;8.17;;
13185;SDS011;6658;53.080;7.428;2022-10-17T04:55:50;9.27;;;8.47;;
13185;SDS011;6658;53.080;7.428;2022-10-17T04:58:16;10.67;;;8.93;;
13185;SDS011;6658;53.080;7.428;2022-10-17T05:00:42;9.20;;;8.50;;
13185;SDS011;6658;53.080;7.428;2022-10-17T05:03:08;9.20;;;8.23;;
13185;SDS011;6658;53.080;7.428;2022-10-17T05:05:36;9.83;;;8.83;;
13185;SDS011;6658;53.080;7.428;2022-10-17T05:08:02;8.67;;;7.97;;
13185;SDS011;6658;53.080;7.428;2022-10-17T05:10:29;9.70;;;8.77;;
13185;SDS011;6658;53.080;7.428;2022-10-17T05:12:55;9.53;;;8.53;;
13185;SDS011;6658;53.080;7.428;2022-10-17T05:15:20;9.30;;;8.60;;
13185;SDS011;6658;53.080;7.428;2022-10-17T05:17:46;9.33;;;8.20;;
13185;SDS011;6658;53.080;7.428;2022-10-17T05:20:11;9.50;;;8.63;;
13185;SDS011;6658;53.080;7.428;2022-10-17T05:22:37;9.17;;;8.37;;
13185;SDS011;6658;53.080;7.428;2022-10-17T05:25:03;9.43;;;8.53;;
13185;SDS011;6658;53.080;7.428;2022-10-17T05:27:29;10.03;;;9.03;;
13185;SDS011;6658;53.080;7.428;2022-10-17T05:29:55;9.43;;;8.40;;
13185;SDS011;6658;53.080;7.428;2022-10-17T05:32:20;9.57;;;8.67;;
13185;SDS011;6658;53.080;7.428;2022-10-17T05:34:46;9.87;;;8.87;;
13185;SDS011;6658;53.080;7.428;2022-10-17T05:37:12;8.97;;;8.07;;
13185;SDS011;6658;53.080;7.428;2022-10-17T05:39:37;10.50;;;9.60;;
13185;SDS011;6658;53.080;7.428;2022-10-17T05:42:03;9.37;;;8.47;;
13185;SDS011;6658;53.080;7.428;2022-10-17T05:44:28;9.10;;;8.23;;
13185;SDS011;6658;53.080;7.428;2022-10-17T05:46:54;9.83;;;8.67;;
13185;SDS011;6658;53.080;7.428;2022-10-17T05:49:20;9.37;;;8.47;;
13185;SDS011;6658;53.080;7.428;2022-10-17T05:51:45;9.73;;;8.80;;
13185;SDS011;6658;53.080;7.428;2022-10-17T05:54:11;10.10;;;9.10;;
13185;SDS011;6658;53.080;7.428;2022-10-17T05:56:36;11.23;;;10.13;;
13185;SDS011;6658;53.080;7.428;2022-10-17T05:59:03;9.90;;;8.90;;
13185;SDS011;6658;53.080;7.428;2022-10-17T06:01:29;9.23;;;8.43;;
13185;SDS011;6658;53.080;7.428;2022-10-17T06:03:54;9.63;;;8.73;;
13185;SDS011;6658;53.080;7.428;2022-10-17T06:06:20;10.20;;;8.20;;
13185;SDS011;6658;53.080;7.428;2022-10-17T06:08:46;9.67;;;8.67;;
13185;SDS011;6658;53.080;7.428;2022-10-17T06:11:11;9.63;;;8.63;;
13185;SDS011;6658;53.080;7.428;2022-10-17T06:13:38;8.93;;;8.23;;
13185;SDS011;6658;53.080;7.428;2022-10-17T06:16:04;12.13;;;8.83;;
13185;SDS011;6658;53.080;7.428;2022-10-17T06:18:30;11.67;;;8.80;;
13185;SDS011;6658;53.080;7.428;2022-10-17T06:21:03;10.57;;;8.23;;
13185;SDS011;6658;53.080;7.428;2022-10-17T06:23:31;9.03;;;8.13;;
13185;SDS011;6658;53.080;7.428;2022-10-17T06:26:00;9.70;;;8.50;;
13185;SDS011;6658;53.080;7.428;2022-10-17T06:28:27;8.37;;;7.67;;
13185;SDS011;6658;53.080;7.428;2022-10-17T06:30:53;8.77;;;7.97;;
13185;SDS011;6658;53.080;7.428;2022-10-17T06:33:19;10.70;;;8.27;;
13185;SDS011;6658;53.080;7.428;2022-10-17T06:35:52;8.57;;;7.77;;
13185;SDS011;6658;53.080;7.428;2022-10-17T06:38:18;8.83;;;8.03;;
13185;SDS011;6658;53.080;7.428;2022-10-17T06:40:44;9.50;;;8.47;;
13185;SDS011;6658;53.080;7.428;2022-10-17T06:43:10;9.40;;;8.50;;
13185;SDS011;6658;53.080;7.428;2022-10-17T06:45:39;9.37;;;8.30;;
13185;SDS011;6658;53.080;7.428;2022-10-17T06:48:06;10.10;;;7.93;;
13185;SDS011;6658;53.080;7.428;2022-10-17T06:50:32;9.53;;;8.50;;
13185;SDS011;6658;53.080;7.428;2022-10-17T06:52:59;8.50;;;7.70;;
13185;SDS011;6658;53.080;7.428;2022-10-17T06:55:24;10.07;;;8.60;;
13185;SDS011;6658;53.080;7.428;2022-10-17T06:57:50;7.97;;;7.27;;
13185;SDS011;6658;53.080;7.428;2022-10-17T07:00:19;8.83;;;7.93;;
13185;SDS011;6658;53.080;7.428;2022-10-17T07:02:45;9.97;;;7.77;;
13185;SDS011;6658;53.080;7.428;2022-10-17T07:05:10;8.57;;;7.70;;
13185;SDS011;6658;53.080;7.428;2022-10-17T07:07:36;8.10;;;7.40;;
13185;SDS011;6658;53.080;7.428;2022-10-17T07:10:02;7.83;;;7.13;;
13185;SDS011;6658;53.080;7.428;2022-10-17T07:12:32;8.70;;;7.80;;
13185;SDS011;6658;53.080;7.428;2022-10-17T07:14:59;8.57;;;7.77;;
13185;SDS011;6658;53.080;7.428;2022-10-17T07:17:25;8.60;;;7.67;;
13185;SDS011;6658;53.080;7.428;2022-10-17T07:19:50;7.53;;;6.77;;
13185;SDS011;6658;53.080;7.428;2022-10-17T07:22:16;7.70;;;6.90;;
13185;SDS011;6658;53.080;7.428;2022-10-17T07:24:42;7.93;;;7.20;;
13185;SDS011;6658;53.080;7.428;2022-10-17T07:27:08;7.43;;;6.40;;
13185;SDS011;6658;53.080;7.428;2022-10-17T07:29:33;7.17;;;6.50;;
13185;SDS011;6658;53.080;7.428;2022-10-17T07:31:59;7.00;;;6.30;;
13185;SDS011;6658;53.080;7.428;2022-10-17T07:34:27;7.47;;;6.53;;
13185;SDS011;6658;53.080;7.428;2022-10-17T07:36:55;9.00;;;6.60;;
13185;SDS011;6658;53.080;7.428;2022-10-17T07:39:21;7.63;;;6.93;;
13185;SDS011;6658;53.080;7.428;2022-10-17T07:41:47;7.63;;;6.83;;
13185;SDS011;6658;53.080;7.428;2022-10-17T07:44:14;6.97;;;6.07;;
13185;SDS011;6658;53.080;7.428;2022-10-17T07:46:40;5.97;;;5.47;;
13185;SDS011;6658;53.080;7.428;2022-10-17T07:49:06;6.20;;;5.50;;
13185;SDS011;6658;53.080;7.428;2022-10-17T07:51:32;5.07;;;4.63;;
13185;SDS011;6658;53.080;7.428;2022-10-17T07:53:57;5.47;;;4.97;;
13185;SDS011;6658;53.080;7.428;2022-10-17T07:56:23;5.53;;;5.03;;
13185;SDS011;6658;53.080;7.428;2022-10-17T07:58:50;5.00;;;4.60;;
13185;SDS011;6658;53.080;7.428;2022-10-17T08:01:16;5.57;;;4.63;;
13185;SDS011;6658;53.080;7.428;2022-10-17T08:03:43;4.93;;;4.43;;
13185;SDS011;6658;53.080;7.428;2022-10-17T08:06:09;4.10;;;3.80;;
13185;SDS011;6658;53.080;7.428;2022-10-17T08:08:35;3.87;;;3.57;;
13185;SDS011;6658;53.080;7.428;2022-10-17T08:11:03;5.93;;;4.07;;
13185;SDS011;6658;53.080;7.428;2022-10-17T08:13:30;4.43;;;3.80;;
13185;SDS011;6658;53.080;7.428;2022-10-17T08:16:00;8.07;;;4.10;;
13185;SDS011;6658;53.080;7.428;2022-10-17T08:18:26;3.80;;;3.50;;
13185;SDS011;6658;53.080;7.428;2022-10-17T08:20:52;3.63;;;3.37;;
13185;SDS011;6658;53.080;7.428;2022-10-17T08:23:18;4.57;;;3.30;;
13185;SDS011;6658;53.080;7.428;2022-10-17T08:25:44;3.40;;;3.17;;
13185;SDS011;6658;53.080;7.428;2022-10-17T08:28:10;4.17;;;3.47;;
13185;SDS011;6658;53.080;7.428;2022-10-17T08:30:35;3.80;;;3.43;;
13185;SDS011;6658;53.080;7.428;2022-10-17T08:33:01;3.73;;;3.30;;
13185;SDS011;6658;53.080;7.428;2022-10-17T08:35:27;3.87;;;3.30;;
13185;SDS011;6658;53.080;7.428;2022-10-17T08:37:53;3.67;;;3.37;;
13185;SDS011;6658;53.080;7.428;2022-10-17T08:40:20;3.40;;;3.10;;
13185;SDS011;6658;53.080;7.428;2022-10-17T08:48:24;6.10;;;2.77;;
13185;SDS011;6658;53.080;7.428;2022-10-17T08:50:56;3.23;;;2.93;;
13185;SDS011;6658;53.080;7.428;2022-10-17T08:55:55;3.27;;;3.00;;
13185;SDS011;6658;53.080;7.428;2022-10-17T08:58:27;4.03;;;2.60;;
13185;SDS011;6658;53.080;7.428;2022-10-17T09:01:07;3.67;;;2.73;;
13185;SDS011;6658;53.080;7.428;2022-10-17T09:04:11;3.03;;;2.73;;
13185;SDS011;6658;53.080;7.428;2022-10-17T09:07:26;3.57;;;3.27;;
13185;SDS011;6658;53.080;7.428;2022-10-17T09:10:25;3.97;;;3.07;;
13185;SDS011;6658;53.080;7.428;2022-10-17T09:13:18;5.10;;;2.73;;
13185;SDS011;6658;53.080;7.428;2022-10-17T09:18:59;3.30;;;2.83;;
13185;SDS011;6658;53.080;7.428;2022-10-17T09:24:23;5.50;;;3.10;;
13185;SDS011;6658;53.080;7.428;2022-10-17T09:27:01;3.57;;;3.00;;
13185;SDS011;6658;53.080;7.428;2022-10-17T09:29:28;3.20;;;2.90;;
13185;SDS011;6658;53.080;7.428;2022-10-17T09:32:01;6.13;;;3.00;;
13185;SDS011;6658;53.080;7.428;2022-10-17T09:34:32;4.47;;;3.20;;
13185;SDS011;6658;53.080;7.428;2022-10-17T09:36:58;3.27;;;3.07;;
13185;SDS011;6658;53.080;7.428;2022-10-17T09:39:26;5.00;;;3.17;;
13185;SDS011;6658;53.080;7.428;2022-10-17T09:41:57;3.47;;;3.10;;
13185;SDS011;6658;53.080;7.428;2022-10-17T09:44:33;3.07;;;2.70;;
13185;SDS011;6658;53.080;7.428;2022-10-17T09:49:52;4.13;;;3.40;;
13185;SDS011;6658;53.080;7.428;2022-10-17T09:55:04;3.37;;;3.00;;
13185;SDS011;6658;53.080;7.428;2022-10-17T10:00:25;3.50;;;3.20;;
13185;SDS011;6658;53.080;7.428;2022-10-17T10:05:37;4.03;;;3.33;;
13185;SDS011;6658;53.080;7.428;2022-10-17T10:08:25;5.83;;;3.37;;
13185;SDS011;6658;53.080;7.428;2022-10-17T10:10:56;3.20;;;2.90;;
13185;SDS011;6658;53.080;7.428;2022-10-17T10:13:29;5.17;;;3.30;;
13185;SDS011;6658;53.080;7.428;2022-10-17T10:16:11;5.60;;;3.27;;
13185;SDS011;6658;53.080;7.428;2022-10-17T10:18:56;3.97;;;3.40;;
13185;SDS011;6658;53.080;7.428;2022-10-17T10:21:26;3.80;;;3.50;;
13185;SDS011;6658;53.080;7.428;2022-10-17T10:26:25;3.60;;;3.30;;
13185;SDS011;6658;53.080;7.428;2022-10-17T10:28:55;3.40;;;3.00;;
13185;SDS011;6658;53.080;7.428;2022-10-17T10:31:25;4.90;;;2.70;;
13185;SDS011;6658;53.080;7.428;2022-10-17T10:34:12;7.80;;;3.43;;
13185;SDS011;6658;53.080;7.428;2022-10-17T10:39:27;3.73;;;3.20;;
13185;SDS011;6658;53.080;7.428;2022-10-17T10:42:07;6.90;;;4.20;;
13185;SDS011;6658;53.080;7.428;2022-10-17T10:44:43;4.67;;;3.30;;
13185;SDS011;6658;53.080;7.428;2022-10-17T10:47:17;4.77;;;3.63;;
13185;SDS011;6658;53.080;7.428;2022-10-17T10:49:45;4.77;;;4.07;;
13185;SDS011;6658;53.080;7.428;2022-10-17T10:52:55;7.67;;;4.03;;
13185;SDS011;6658;53.080;7.428;2022-10-17T10:55:23;4.23;;;3.70;;
13185;SDS011;6658;53.080;7.428;2022-10-17T10:57:53;6.13;;;4.20;;
13185;SDS011;6658;53.080;7.428;2022-10-17T11:00:24;7.33;;;4.80;;
13185;SDS011;6658;53.080;7.428;2022-10-17T11:14:16;7.77;;;5.20;;
13185;SDS011;6658;53.080;7.428;2022-10-17T11:17:05;7.07;;;5.50;;
13185;SDS011;6658;53.080;7.428;2022-10-17T11:19:43;6.70;;;5.53;;
13185;SDS011;6658;53.080;7.428;2022-10-17T11:22:40;6.20;;;5.00;;
13185;SDS011;6658;53.080;7.428;2022-10-17T11:27:52;6.93;;;6.03;;
13185;SDS011;6658;53.080;7.428;2022-10-17T11:30:18;6.90;;;6.30;;
13185;SDS011;6658;53.080;7.428;2022-10-17T11:32:45;7.10;;;5.97;;
13185;SDS011;6658;53.080;7.428;2022-10-17T11:35:20;6.17;;;5.57;;
13185;SDS011;6658;53.080;7.428;2022-10-17T11:40:54;10.53;;;6.77;;
13185;SDS011;6658;53.080;7.428;2022-10-17T11:46:34;6.93;;;5.83;;
13185;SDS011;6658;53.080;7.428;2022-10-17T11:49:11;8.93;;;5.90;;
13185;SDS011;6658;53.080;7.428;2022-10-17T11:51:51;7.10;;;6.50;;
13185;SDS011;6658;53.080;7.428;2022-10-17T11:54:29;9.03;;;6.60;;
13185;SDS011;6658;53.080;7.428;2022-10-17T11:57:09;9.37;;;6.30;;
13185;SDS011;6658;53.080;7.428;2022-10-17T11:59:44;8.53;;;5.80;;
13185;SDS011;6658;53.080;7.428;2022-10-17T12:05:29;6.73;;;6.03;;
13185;SDS011;6658;53.080;7.428;2022-10-17T12:08:42;6.37;;;5.30;;
13185;SDS011;6658;53.080;7.428;2022-10-17T12:13:47;5.57;;;5.00;;
13185;SDS011;6658;53.080;7.428;2022-10-17T12:18:44;5.73;;;5.13;;
13185;SDS011;6658;53.080;7.428;2022-10-17T12:21:11;5.73;;;5.20;;
13185;SDS011;6658;53.080;7.428;2022-10-17T12:23:37;5.90;;;5.40;;
13185;SDS011;6658;53.080;7.428;2022-10-17T12:26:06;5.30;;;4.80;;
13185;SDS011;6658;53.080;7.428;2022-10-17T12:31:07;5.90;;;4.97;;
13185;SDS011;6658;53.080;7.428;2022-10-17T12:33:37;5.03;;;4.60;;
13185;SDS011;6658;53.080;7.428;2022-10-17T12:44:49;6.17;;;3.90;;
13185;SDS011;6658;53.080;7.428;2022-10-17T12:46:55;4.77;;;4.37;;
13185;SDS011;6658;53.080;7.428;2022-10-17T12:52:20;4.30;;;4.00;;
13185;SDS011;6658;53.080;7.428;2022-10-17T12:55:39;3.97;;;3.67;;
13185;SDS011;6658;53.080;7.428;2022-10-17T12:57:47;5.17;;;4.30;;
13185;SDS011;6658;53.080;7.428;2022-10-17T13:00:30;4.43;;;4.03;;
13185;SDS011;6658;53.080;7.428;2022-10-17T13:03:11;5.77;;;3.83;;
13185;SDS011;6658;53.080;7.428;2022-10-17T13:05:42;4.47;;;4.10;;
13185;SDS011;6658;53.080;7.428;2022-10-17T13:08:19;3.87;;;3.57;;
13185;SDS011;6658;53.080;7.428;2022-10-17T13:11:06;4.37;;;4.07;;
13185;SDS011;6658;53.080;7.428;2022-10-17T13:16:38;3.87;;;3.53;;
13185;SDS011;6658;53.080;7.428;2022-10-17T13:19:12;3.53;;;3.23;;
13185;SDS011;6658;53.080;7.428;2022-10-17T13:21:48;4.03;;;3.70;;
13185;SDS011;6658;53.080;7.428;2022-10-17T13:26:59;3.40;;;3.10;;
13185;SDS011;6658;53.080;7.428;2022-10-17T13:29:26;3.63;;;3.33;;
13185;SDS011;6658;53.080;7.428;2022-10-17T13:32:03;3.73;;;3.23;;
13185;SDS011;6658;53.080;7.428;2022-10-17T13:34:30;3.60;;;3.30;;
13185;SDS011;6658;53.080;7.428;2022-10-17T13:37:02;3.53;;;2.97;;
13185;SDS011;6658;53.080;7.428;2022-10-17T13:39:34;3.87;;;3.57;;
13185;SDS011;6658;53.080;7.428;2022-10-17T13:42:04;2.83;;;2.63;;
13185;SDS011;6658;53.080;7.428;2022-10-17T13:44:32;3.13;;;2.93;;
13185;SDS011;6658;53.080;7.428;2022-10-17T13:46:59;3.00;;;2.70;;
13185;SDS011;6658;53.080;7.428;2022-10-17T13:57:56;3.63;;;3.10;;
13185;SDS011;6658;53.080;7.428;2022-10-17T14:00:45;3.00;;;2.80;;
13185;SDS011;6658;53.080;7.428;2022-10-17T14:03:13;3.60;;;3.00;;
13185;SDS011;6658;53.080;7.428;2022-10-17T14:08:33;3.10;;;2.80;;
13185;SDS011;6658;53.080;7.428;2022-10-17T14:11:00;3.00;;;2.80;;
13185;SDS011;6658;53.080;7.428;2022-10-17T14:13:28;2.97;;;2.77;;
13185;SDS011;6658;53.080;7.428;2022-10-17T14:16:00;3.17;;;2.97;;
13185;SDS011;6658;53.080;7.428;2022-10-17T14:18:29;4.70;;;2.87;;
13185;SDS011;6658;53.080;7.428;2022-10-17T14:20:58;3.83;;;2.50;;
13185;SDS011;6658;53.080;7.428;2022-10-17T14:23:29;3.67;;;3.37;;
13185;SDS011;6658;53.080;7.428;2022-10-17T14:26:09;2.83;;;2.63;;
13185;SDS011;6658;53.080;7.428;2022-10-17T14:28:41;3.13;;;2.83;;
13185;SDS011;6658;53.080;7.428;2022-10-17T14:33:41;2.97;;;2.63;;
13185;SDS011;6658;53.080;7.428;2022-10-17T14:36:09;3.13;;;2.40;;
13185;SDS011;6658;53.080;7.428;2022-10-17T14:38:35;3.33;;;2.60;;
13185;SDS011;6658;53.080;7.428;2022-10-17T14:41:02;3.63;;;3.30;;
13185;SDS011;6658;53.080;7.428;2022-10-17T14:43:43;4.07;;;3.13;;
13185;SDS011;6658;53.080;7.428;2022-10-17T14:46:15;3.70;;;3.40;;
13185;SDS011;6658;53.080;7.428;2022-10-17T14:48:41;3.73;;;3.43;;
13185;SDS011;6658;53.080;7.428;2022-10-17T14:51:13;4.00;;;3.27;;
13185;SDS011;6658;53.080;7.428;2022-10-17T14:53:42;4.13;;;3.30;;
13185;SDS011;6658;53.080;7.428;2022-10-17T14:56:23;4.30;;;3.47;;
13185;SDS011;6658;53.080;7.428;2022-10-17T14:58:52;3.93;;;3.30;;
13185;SDS011;6658;53.080;7.428;2022-10-17T15:01:18;2.93;;;2.60;;
13185;SDS011;6658;53.080;7.428;2022-10-17T15:03:44;2.83;;;1.80;;
13185;SDS011;6658;53.080;7.428;2022-10-17T15:06:17;3.03;;;1.43;;
13185;SDS011;6658;53.080;7.428;2022-10-17T15:08:48;1.30;;;1.23;;
13185;SDS011;6658;53.080;7.428;2022-10-17T15:11:14;1.40;;;1.30;;
13185;SDS011;6658;53.080;7.428;2022-10-17T15:13:40;1.47;;;1.37;;
13185;SDS011;6658;53.080;7.428;2022-10-17T15:16:19;1.50;;;1.40;;
13185;SDS011;6658;53.080;7.428;2022-10-17T15:18:47;3.27;;;1.37;;
13185;SDS011;6658;53.080;7.428;2022-10-17T15:21:14;2.33;;;1.90;;
13185;SDS011;6658;53.080;7.428;2022-10-17T15:23:42;1.83;;;1.70;;
13185;SDS011;6658;53.080;7.428;2022-10-17T15:26:31;3.80;;;1.57;;
13185;SDS011;6658;53.080;7.428;2022-10-17T15:28:58;1.83;;;1.67;;
13185;SDS011;6658;53.080;7.428;2022-10-17T15:31:25;1.73;;;1.30;;
13185;SDS011;6658;53.080;7.428;2022-10-17T15:33:51;1.63;;;1.10;;
13185;SDS011;6658;53.080;7.428;2022-10-17T15:36:27;2.10;;;1.20;;
13185;SDS011;6658;53.080;7.428;2022-10-17T15:39:03;1.20;;;1.07;;
13185;SDS011;6658;53.080;7.428;2022-10-17T15:41:29;2.00;;;1.40;;
13185;SDS011;6658;53.080;7.428;2022-10-17T15:43:56;1.97;;;1.10;;
13185;SDS011;6658;53.080;7.428;2022-10-17T15:46:23;1.37;;;1.27;;
13185;SDS011;6658;53.080;7.428;2022-10-17T15:48:52;4.40;;;1.60;;
13185;SDS011;6658;53.080;7.428;2022-10-17T15:51:18;1.67;;;1.57;;
13185;SDS011;6658;53.080;7.428;2022-10-17T15:53:44;1.53;;;1.40;;
13185;SDS011;6658;53.080;7.428;2022-10-17T15:56:29;2.67;;;1.60;;
13185;SDS011;6658;53.080;7.428;2022-10-17T15:59:00;1.90;;;1.73;;
13185;SDS011;6658;53.080;7.428;2022-10-17T16:01:38;4.80;;;1.67;;
13185;SDS011;6658;53.080;7.428;2022-10-17T16:04:04;2.50;;;2.30;;
13185;SDS011;6658;53.080;7.428;2022-10-17T16:06:38;3.60;;;1.67;;
13185;SDS011;6658;53.080;7.428;2022-10-17T16:09:04;1.70;;;1.33;;
13185;SDS011;6658;53.080;7.428;2022-10-17T16:11:31;2.67;;;1.37;;
13185;SDS011;6658;53.080;7.428;2022-10-17T16:14:03;2.80;;;1.90;;
13185;SDS011;6658;53.080;7.428;2022-10-17T16:16:38;1.47;;;1.37;;
13185;SDS011;6658;53.080;7.428;2022-10-17T16:19:05;2.23;;;2.03;;
13185;SDS011;6658;53.080;7.428;2022-10-17T16:21:34;2.10;;;1.97;;
13185;SDS011;6658;53.080;7.428;2022-10-17T16:24:10;3.57;;;2.53;;
13185;SDS011;6658;53.080;7.428;2022-10-17T16:26:36;4.23;;;1.87;;
13185;SDS011;6658;53.080;7.428;2022-10-17T16:29:05;2.07;;;1.53;;
13185;SDS011;6658;53.080;7.428;2022-10-17T16:31:41;1.47;;;1.37;;
13185;SDS011;6658;53.080;7.428;2022-10-17T16:34:09;1.53;;;1.33;;
13185;SDS011;6658;53.080;7.428;2022-10-17T16:36:37;1.97;;;1.87;;
13185;SDS011;6658;53.080;7.428;2022-10-17T16:39:03;2.23;;;1.80;;
13185;SDS011;6658;53.080;7.428;2022-10-17T16:41:38;2.00;;;1.90;;
13185;SDS011;6658;53.080;7.428;2022-10-17T16:44:05;2.77;;;2.40;;
13185;SDS011;6658;53.080;7.428;2022-10-17T16:46:32;2.00;;;1.80;;
13185;SDS011;6658;53.080;7.428;2022-10-17T16:49:00;2.77;;;2.17;;
13185;SDS011;6658;53.080;7.428;2022-10-17T16:51:28;4.00;;;2.40;;
13185;SDS011;6658;53.080;7.428;2022-10-17T16:53:54;3.27;;;2.37;;
13185;SDS011;6658;53.080;7.428;2022-10-17T16:56:22;2.80;;;2.60;;
13185;SDS011;6658;53.080;7.428;2022-10-17T16:58:49;3.20;;;2.90;;
13185;SDS011;6658;53.080;7.428;2022-10-17T17:01:19;2.93;;;2.63;;
13185;SDS011;6658;53.080;7.428;2022-10-17T17:03:47;3.47;;;2.57;;
13185;SDS011;6658;53.080;7.428;2022-10-17T17:06:16;2.50;;;2.30;;
13185;SDS011;6658;53.080;7.428;2022-10-17T17:08:44;2.87;;;2.67;;
13185;SDS011;6658;53.080;7.428;2022-10-17T17:11:11;3.50;;;3.20;;
13185;SDS011;6658;53.080;7.428;2022-10-17T17:13:42;3.10;;;2.90;;
13185;SDS011;6658;53.080;7.428;2022-10-17T17:16:12;3.63;;;3.33;;
13185;SDS011;6658;53.080;7.428;2022-10-17T17:18:43;4.80;;;3.13;;
13185;SDS011;6658;53.080;7.428;2022-10-17T17:21:10;3.83;;;3.53;;
13185;SDS011;6658;53.080;7.428;2022-10-17T17:23:38;4.10;;;3.70;;
13185;SDS011;6658;53.080;7.428;2022-10-17T17:26:06;4.30;;;3.90;;
13185;SDS011;6658;53.080;7.428;2022-10-17T17:28:34;4.83;;;4.17;;